sensor_id;sensor_type;location;lat;lon;timestamp;temperature;humidity
27803;DHT22;15182;48.174;11.562;2022-07-19T00:00:26;28.90;54.10
27803;DHT22;15182;48.174;11.562;2022-07-19T00:02:59;28.90;54.20
27803;DHT22;15182;48.174;11.562;2022-07-19T00:05:30;28.80;54.30
27803;DHT22;15182;48.174;11.562;2022-07-19T00:08:02;28.80;54.30
27803;DHT22;15182;48.174;11.562;2022-07-19T00:10:33;28.70;54.40
27803;DHT22;15182;48.174;11.562;2022-07-19T00:13:05;28.70;54.50
27803;DHT22;15182;48.174;11.562;2022-07-19T00:15:36;28.70;54.70
27803;DHT22;15182;48.174;11.562;2022-07-19T00:18:10;28.70;54.70
27803;DHT22;15182;48.174;11.562;2022-07-19T00:20:41;28.60;54.70
27803;DHT22;15182;48.174;11.562;2022-07-19T00:23:12;28.60;54.80
27803;DHT22;15182;48.174;11.562;2022-07-19T00:25:44;28.60;55.00
27803;DHT22;15182;48.174;11.562;2022-07-19T00:28:15;28.50;54.90
27803;DHT22;15182;48.174;11.562;2022-07-19T00:30:47;28.50;55.20
27803;DHT22;15182;48.174;11.562;2022-07-19T00:33:19;28.40;55.10
27803;DHT22;15182;48.174;11.562;2022-07-19T00:35:51;28.40;55.30
27803;DHT22;15182;48.174;11.562;2022-07-19T00:38:22;28.30;55.20
27803;DHT22;15182;48.174;11.562;2022-07-19T00:40:53;28.30;55.30
27803;DHT22;15182;48.174;11.562;2022-07-19T00:43:25;28.30;55.40
27803;DHT22;15182;48.174;11.562;2022-07-19T00:45:56;28.30;55.50
27803;DHT22;15182;48.174;11.562;2022-07-19T00:48:29;28.20;55.50
27803;DHT22;15182;48.174;11.562;2022-07-19T00:51:00;28.20;55.60
27803;DHT22;15182;48.174;11.562;2022-07-19T00:53:32;28.20;55.70
27803;DHT22;15182;48.174;11.562;2022-07-19T00:56:03;28.10;55.70
27803;DHT22;15182;48.174;11.562;2022-07-19T00:58:38;28.10;55.90
27803;DHT22;15182;48.174;11.562;2022-07-19T01:01:11;28.10;56.70
27803;DHT22;15182;48.174;11.562;2022-07-19T01:03:44;28.00;56.00
27803;DHT22;15182;48.174;11.562;2022-07-19T01:06:16;28.00;56.10
27803;DHT22;15182;48.174;11.562;2022-07-19T01:08:47;28.00;56.10
27803;DHT22;15182;48.174;11.562;2022-07-19T01:11:18;27.90;56.10
27803;DHT22;15182;48.174;11.562;2022-07-19T01:13:50;27.90;56.30
27803;DHT22;15182;48.174;11.562;2022-07-19T01:16:21;27.90;56.30
27803;DHT22;15182;48.174;11.562;2022-07-19T01:18:54;27.80;56.40
27803;DHT22;15182;48.174;11.562;2022-07-19T01:21:27;27.80;56.50
27803;DHT22;15182;48.174;11.562;2022-07-19T01:23:59;27.80;56.60
27803;DHT22;15182;48.174;11.562;2022-07-19T01:26:30;27.70;56.60
27803;DHT22;15182;48.174;11.562;2022-07-19T01:29:02;27.70;56.70
27803;DHT22;15182;48.174;11.562;2022-07-19T01:31:33;27.60;56.80
27803;DHT22;15182;48.174;11.562;2022-07-19T01:34:04;27.60;57.20
27803;DHT22;15182;48.174;11.562;2022-07-19T01:36:37;27.60;56.90
27803;DHT22;15182;48.174;11.562;2022-07-19T01:39:09;27.50;57.00
27803;DHT22;15182;48.174;11.562;2022-07-19T01:41:40;27.40;57.00
27803;DHT22;15182;48.174;11.562;2022-07-19T01:44:11;27.40;57.20
27803;DHT22;15182;48.174;11.562;2022-07-19T01:46:45;27.40;57.20
27803;DHT22;15182;48.174;11.562;2022-07-19T01:49:16;27.40;57.40
27803;DHT22;15182;48.174;11.562;2022-07-19T01:51:49;27.30;57.40
27803;DHT22;15182;48.174;11.562;2022-07-19T01:54:20;27.30;57.50
27803;DHT22;15182;48.174;11.562;2022-07-19T01:56:51;27.30;58.20
27803;DHT22;15182;48.174;11.562;2022-07-19T01:59:23;27.30;57.60
27803;DHT22;15182;48.174;11.562;2022-07-19T02:01:54;27.30;57.70
27803;DHT22;15182;48.174;11.562;2022-07-19T02:04:28;27.20;58.40
27803;DHT22;15182;48.174;11.562;2022-07-19T02:07:01;27.20;57.90
27803;DHT22;15182;48.174;11.562;2022-07-19T02:09:33;27.20;57.80
27803;DHT22;15182;48.174;11.562;2022-07-19T02:12:05;27.10;57.70
27803;DHT22;15182;48.174;11.562;2022-07-19T02:14:36;27.10;57.80
27803;DHT22;15182;48.174;11.562;2022-07-19T02:17:08;27.10;57.90
27803;DHT22;15182;48.174;11.562;2022-07-19T02:19:39;27.10;58.00
27803;DHT22;15182;48.174;11.562;2022-07-19T02:22:12;27.00;58.10
27803;DHT22;15182;48.174;11.562;2022-07-19T02:24:43;27.00;58.20
27803;DHT22;15182;48.174;11.562;2022-07-19T02:27:15;27.00;58.20
27803;DHT22;15182;48.174;11.562;2022-07-19T02:29:47;27.00;58.20
27803;DHT22;15182;48.174;11.562;2022-07-19T02:32:19;26.90;58.30
27803;DHT22;15182;48.174;11.562;2022-07-19T02:34:52;26.90;58.30
27803;DHT22;15182;48.174;11.562;2022-07-19T02:37:25;26.80;58.50
27803;DHT22;15182;48.174;11.562;2022-07-19T02:39:57;26.90;58.60
27803;DHT22;15182;48.174;11.562;2022-07-19T02:42:28;26.80;58.50
27803;DHT22;15182;48.174;11.562;2022-07-19T02:45:00;26.80;58.60
27803;DHT22;15182;48.174;11.562;2022-07-19T02:47:32;26.80;58.60
27803;DHT22;15182;48.174;11.562;2022-07-19T02:50:03;26.80;58.60
27803;DHT22;15182;48.174;11.562;2022-07-19T02:52:36;26.70;58.60
27803;DHT22;15182;48.174;11.562;2022-07-19T02:55:11;26.70;58.80
27803;DHT22;15182;48.174;11.562;2022-07-19T02:57:42;26.70;59.10
27803;DHT22;15182;48.174;11.562;2022-07-19T03:00:14;26.70;58.90
27803;DHT22;15182;48.174;11.562;2022-07-19T03:02:46;26.60;58.90
27803;DHT22;15182;48.174;11.562;2022-07-19T03:05:17;26.60;59.00
27803;DHT22;15182;48.174;11.562;2022-07-19T03:07:50;26.60;59.10
27803;DHT22;15182;48.174;11.562;2022-07-19T03:10:22;26.60;59.20
27803;DHT22;15182;48.174;11.562;2022-07-19T03:12:53;26.60;59.20
27803;DHT22;15182;48.174;11.562;2022-07-19T03:15:25;26.50;59.20
27803;DHT22;15182;48.174;11.562;2022-07-19T03:17:56;26.50;59.30
27803;DHT22;15182;48.174;11.562;2022-07-19T03:20:28;26.40;59.30
27803;DHT22;15182;48.174;11.562;2022-07-19T03:23:01;26.40;59.40
27803;DHT22;15182;48.174;11.562;2022-07-19T03:25:33;26.40;59.60
27803;DHT22;15182;48.174;11.562;2022-07-19T03:28:04;26.30;59.60
27803;DHT22;15182;48.174;11.562;2022-07-19T03:30:36;26.30;59.60
27803;DHT22;15182;48.174;11.562;2022-07-19T03:33:07;26.30;59.70
27803;DHT22;15182;48.174;11.562;2022-07-19T03:35:38;26.30;59.80
27803;DHT22;15182;48.174;11.562;2022-07-19T03:38:11;26.30;59.80
27803;DHT22;15182;48.174;11.562;2022-07-19T03:40:45;26.30;60.00
27803;DHT22;15182;48.174;11.562;2022-07-19T03:43:17;26.20;60.00
27803;DHT22;15182;48.174;11.562;2022-07-19T03:45:51;26.20;60.00
27803;DHT22;15182;48.174;11.562;2022-07-19T03:48:22;26.20;60.00
27803;DHT22;15182;48.174;11.562;2022-07-19T03:50:54;26.10;60.00
27803;DHT22;15182;48.174;11.562;2022-07-19T03:53:26;26.10;60.10
27803;DHT22;15182;48.174;11.562;2022-07-19T03:55:57;26.10;60.10
27803;DHT22;15182;48.174;11.562;2022-07-19T03:58:29;26.00;60.10
27803;DHT22;15182;48.174;11.562;2022-07-19T04:01:00;26.00;60.20
27803;DHT22;15182;48.174;11.562;2022-07-19T04:03:33;26.00;60.30
27803;DHT22;15182;48.174;11.562;2022-07-19T04:06:07;25.90;60.40
27803;DHT22;15182;48.174;11.562;2022-07-19T04:08:42;25.90;60.50
27803;DHT22;15182;48.174;11.562;2022-07-19T04:11:13;25.80;60.60
27803;DHT22;15182;48.174;11.562;2022-07-19T04:13:44;25.80;60.70
27803;DHT22;15182;48.174;11.562;2022-07-19T04:16:16;25.80;60.90
27803;DHT22;15182;48.174;11.562;2022-07-19T04:18:47;25.80;61.10
27803;DHT22;15182;48.174;11.562;2022-07-19T04:21:19;25.80;61.10
27803;DHT22;15182;48.174;11.562;2022-07-19T04:23:51;25.70;60.90
27803;DHT22;15182;48.174;11.562;2022-07-19T04:26:23;25.70;61.20
27803;DHT22;15182;48.174;11.562;2022-07-19T04:28:54;25.70;61.20
27803;DHT22;15182;48.174;11.562;2022-07-19T04:31:26;25.70;61.30
27803;DHT22;15182;48.174;11.562;2022-07-19T04:33:57;25.70;61.40
27803;DHT22;15182;48.174;11.562;2022-07-19T04:36:28;25.70;61.50
27803;DHT22;15182;48.174;11.562;2022-07-19T04:39:01;25.70;61.60
27803;DHT22;15182;48.174;11.562;2022-07-19T04:41:33;25.70;61.70
27803;DHT22;15182;48.174;11.562;2022-07-19T04:44:05;25.70;61.70
27803;DHT22;15182;48.174;11.562;2022-07-19T04:46:36;25.70;61.50
27803;DHT22;15182;48.174;11.562;2022-07-19T04:49:08;25.70;61.30
27803;DHT22;15182;48.174;11.562;2022-07-19T04:51:39;25.70;61.20
27803;DHT22;15182;48.174;11.562;2022-07-19T04:54:11;25.70;61.00
27803;DHT22;15182;48.174;11.562;2022-07-19T04:56:43;25.60;61.00
27803;DHT22;15182;48.174;11.562;2022-07-19T04:59:16;25.60;61.00
27803;DHT22;15182;48.174;11.562;2022-07-19T05:01:47;25.60;60.90
27803;DHT22;15182;48.174;11.562;2022-07-19T05:04:19;25.60;60.80
27803;DHT22;15182;48.174;11.562;2022-07-19T05:06:50;25.60;60.90
27803;DHT22;15182;48.174;11.562;2022-07-19T05:09:27;25.60;60.90
27803;DHT22;15182;48.174;11.562;2022-07-19T05:11:58;25.70;60.80
27803;DHT22;15182;48.174;11.562;2022-07-19T05:14:33;25.70;60.60
27803;DHT22;15182;48.174;11.562;2022-07-19T05:17:04;25.60;60.60
27803;DHT22;15182;48.174;11.562;2022-07-19T05:19:36;25.70;60.70
27803;DHT22;15182;48.174;11.562;2022-07-19T05:22:07;25.70;61.10
27803;DHT22;15182;48.174;11.562;2022-07-19T05:24:40;25.70;61.30
27803;DHT22;15182;48.174;11.562;2022-07-19T05:27:11;25.70;61.70
27803;DHT22;15182;48.174;11.562;2022-07-19T05:29:42;25.70;62.00
27803;DHT22;15182;48.174;11.562;2022-07-19T05:32:14;25.70;61.20
27803;DHT22;15182;48.174;11.562;2022-07-19T05:34:45;25.70;61.00
27803;DHT22;15182;48.174;11.562;2022-07-19T05:37:17;25.80;61.00
27803;DHT22;15182;48.174;11.562;2022-07-19T05:39:49;25.70;60.90
27803;DHT22;15182;48.174;11.562;2022-07-19T05:42:20;25.80;61.20
27803;DHT22;15182;48.174;11.562;2022-07-19T05:44:52;25.80;61.00
27803;DHT22;15182;48.174;11.562;2022-07-19T05:47:23;25.80;60.90
27803;DHT22;15182;48.174;11.562;2022-07-19T05:49:55;25.80;60.90
27803;DHT22;15182;48.174;11.562;2022-07-19T05:52:27;25.90;61.10
27803;DHT22;15182;48.174;11.562;2022-07-19T05:55:01;25.90;61.10
27803;DHT22;15182;48.174;11.562;2022-07-19T05:57:33;25.90;61.00
27803;DHT22;15182;48.174;11.562;2022-07-19T06:00:05;26.00;61.00
27803;DHT22;15182;48.174;11.562;2022-07-19T06:02:40;26.00;60.80
27803;DHT22;15182;48.174;11.562;2022-07-19T06:05:12;26.00;61.10
27803;DHT22;15182;48.174;11.562;2022-07-19T06:07:43;26.00;60.90
27803;DHT22;15182;48.174;11.562;2022-07-19T06:10:16;26.10;61.10
27803;DHT22;15182;48.174;11.562;2022-07-19T06:12:47;26.10;61.20
27803;DHT22;15182;48.174;11.562;2022-07-19T06:15:19;26.10;61.00
27803;DHT22;15182;48.174;11.562;2022-07-19T06:17:50;26.20;61.10
27803;DHT22;15182;48.174;11.562;2022-07-19T06:20:21;26.20;61.40
27803;DHT22;15182;48.174;11.562;2022-07-19T06:22:52;26.30;61.40
27803;DHT22;15182;48.174;11.562;2022-07-19T06:25:25;26.30;61.50
27803;DHT22;15182;48.174;11.562;2022-07-19T06:27:57;26.30;61.40
27803;DHT22;15182;48.174;11.562;2022-07-19T06:30:28;26.40;61.20
27803;DHT22;15182;48.174;11.562;2022-07-19T06:33:02;26.40;61.20
27803;DHT22;15182;48.174;11.562;2022-07-19T06:35:33;26.50;61.30
27803;DHT22;15182;48.174;11.562;2022-07-19T06:38:04;26.60;61.40
27803;DHT22;15182;48.174;11.562;2022-07-19T06:40:37;26.70;61.20
27803;DHT22;15182;48.174;11.562;2022-07-19T06:43:08;26.80;61.10
27803;DHT22;15182;48.174;11.562;2022-07-19T06:45:41;26.90;61.20
27803;DHT22;15182;48.174;11.562;2022-07-19T06:48:12;27.00;61.30
27803;DHT22;15182;48.174;11.562;2022-07-19T06:50:44;27.10;61.30
27803;DHT22;15182;48.174;11.562;2022-07-19T06:53:15;27.20;61.30
27803;DHT22;15182;48.174;11.562;2022-07-19T06:55:48;27.30;61.10
27803;DHT22;15182;48.174;11.562;2022-07-19T06:58:20;27.40;61.10
27803;DHT22;15182;48.174;11.562;2022-07-19T07:00:51;27.60;60.90
27803;DHT22;15182;48.174;11.562;2022-07-19T07:03:22;27.70;60.90
27803;DHT22;15182;48.174;11.562;2022-07-19T07:05:54;27.90;60.90
27803;DHT22;15182;48.174;11.562;2022-07-19T07:08:25;28.00;60.90
27803;DHT22;15182;48.174;11.562;2022-07-19T07:10:58;28.10;60.40
27803;DHT22;15182;48.174;11.562;2022-07-19T07:13:30;28.30;60.30
27803;DHT22;15182;48.174;11.562;2022-07-19T07:16:01;28.40;60.10
27803;DHT22;15182;48.174;11.562;2022-07-19T07:18:32;28.60;60.00
27803;DHT22;15182;48.174;11.562;2022-07-19T07:21:04;28.70;59.70
27803;DHT22;15182;48.174;11.562;2022-07-19T07:23:36;28.80;59.60
27803;DHT22;15182;48.174;11.562;2022-07-19T07:26:08;29.10;59.30
27803;DHT22;15182;48.174;11.562;2022-07-19T07:28:40;29.20;59.10
27803;DHT22;15182;48.174;11.562;2022-07-19T07:31:12;29.30;59.70
27803;DHT22;15182;48.174;11.562;2022-07-19T07:33:43;29.40;58.90
27803;DHT22;15182;48.174;11.562;2022-07-19T07:36:15;29.50;59.20
27803;DHT22;15182;48.174;11.562;2022-07-19T07:38:46;29.60;58.30
27803;DHT22;15182;48.174;11.562;2022-07-19T07:41:18;29.80;58.40
27803;DHT22;15182;48.174;11.562;2022-07-19T07:43:50;29.90;58.30
27803;DHT22;15182;48.174;11.562;2022-07-19T07:46:21;30.00;58.30
27803;DHT22;15182;48.174;11.562;2022-07-19T07:48:53;30.10;57.80
27803;DHT22;15182;48.174;11.562;2022-07-19T07:51:24;30.20;57.60
27803;DHT22;15182;48.174;11.562;2022-07-19T07:53:57;30.30;57.60
27803;DHT22;15182;48.174;11.562;2022-07-19T07:56:31;30.40;57.40
27803;DHT22;15182;48.174;11.562;2022-07-19T07:59:03;30.50;57.50
27803;DHT22;15182;48.174;11.562;2022-07-19T08:01:34;30.50;57.30
27803;DHT22;15182;48.174;11.562;2022-07-19T08:04:07;30.60;57.10
27803;DHT22;15182;48.174;11.562;2022-07-19T08:06:38;30.70;57.00
27803;DHT22;15182;48.174;11.562;2022-07-19T08:09:09;30.80;56.70
27803;DHT22;15182;48.174;11.562;2022-07-19T08:11:42;30.90;56.60
27803;DHT22;15182;48.174;11.562;2022-07-19T08:14:13;31.00;56.60
27803;DHT22;15182;48.174;11.562;2022-07-19T08:16:45;31.00;56.40
27803;DHT22;15182;48.174;11.562;2022-07-19T08:19:16;31.10;56.40
27803;DHT22;15182;48.174;11.562;2022-07-19T08:21:47;31.20;56.40
27803;DHT22;15182;48.174;11.562;2022-07-19T08:24:19;31.30;56.30
27803;DHT22;15182;48.174;11.562;2022-07-19T08:26:51;31.40;56.20
27803;DHT22;15182;48.174;11.562;2022-07-19T08:29:23;31.50;55.80
27803;DHT22;15182;48.174;11.562;2022-07-19T08:31:54;31.60;55.80
27803;DHT22;15182;48.174;11.562;2022-07-19T08:34:26;31.70;55.60
27803;DHT22;15182;48.174;11.562;2022-07-19T08:36:58;31.80;55.00
27803;DHT22;15182;48.174;11.562;2022-07-19T08:39:29;31.90;55.10
27803;DHT22;15182;48.174;11.562;2022-07-19T08:42:02;32.00;54.90
27803;DHT22;15182;48.174;11.562;2022-07-19T08:44:35;32.00;54.70
27803;DHT22;15182;48.174;11.562;2022-07-19T08:47:09;32.20;54.20
27803;DHT22;15182;48.174;11.562;2022-07-19T08:49:43;32.30;54.30
27803;DHT22;15182;48.174;11.562;2022-07-19T08:52:15;32.30;53.20
27803;DHT22;15182;48.174;11.562;2022-07-19T08:54:47;32.50;52.70
27803;DHT22;15182;48.174;11.562;2022-07-19T08:57:20;32.50;52.60
27803;DHT22;15182;48.174;11.562;2022-07-19T09:00:08;32.60;52.00
27803;DHT22;15182;48.174;11.562;2022-07-19T09:02:42;32.60;52.30
27803;DHT22;15182;48.174;11.562;2022-07-19T09:05:23;32.70;52.00
27803;DHT22;15182;48.174;11.562;2022-07-19T09:08:10;32.80;51.80
27803;DHT22;15182;48.174;11.562;2022-07-19T09:10:46;32.80;50.60
27803;DHT22;15182;48.174;11.562;2022-07-19T09:13:34;32.90;50.60
27803;DHT22;15182;48.174;11.562;2022-07-19T09:16:07;33.00;50.80
27803;DHT22;15182;48.174;11.562;2022-07-19T09:18:39;33.10;50.70
27803;DHT22;15182;48.174;11.562;2022-07-19T09:21:10;33.20;50.40
27803;DHT22;15182;48.174;11.562;2022-07-19T09:23:42;33.40;50.40
27803;DHT22;15182;48.174;11.562;2022-07-19T09:26:14;33.40;49.30
27803;DHT22;15182;48.174;11.562;2022-07-19T09:28:47;33.50;49.30
27803;DHT22;15182;48.174;11.562;2022-07-19T09:31:18;33.70;49.10
27803;DHT22;15182;48.174;11.562;2022-07-19T09:33:53;33.70;48.90
27803;DHT22;15182;48.174;11.562;2022-07-19T09:36:25;33.80;49.60
27803;DHT22;15182;48.174;11.562;2022-07-19T09:38:56;33.90;49.20
27803;DHT22;15182;48.174;11.562;2022-07-19T09:41:29;34.00;48.90
27803;DHT22;15182;48.174;11.562;2022-07-19T09:44:03;34.10;48.90
27803;DHT22;15182;48.174;11.562;2022-07-19T09:46:39;34.20;48.10
27803;DHT22;15182;48.174;11.562;2022-07-19T09:49:12;34.30;48.10
27803;DHT22;15182;48.174;11.562;2022-07-19T09:51:46;34.40;48.70
27803;DHT22;15182;48.174;11.562;2022-07-19T09:54:21;34.40;47.90
27803;DHT22;15182;48.174;11.562;2022-07-19T09:56:57;34.50;48.00
27803;DHT22;15182;48.174;11.562;2022-07-19T09:59:29;34.70;48.10
27803;DHT22;15182;48.174;11.562;2022-07-19T10:02:01;34.70;47.70
27803;DHT22;15182;48.174;11.562;2022-07-19T10:04:34;34.90;47.90
27803;DHT22;15182;48.174;11.562;2022-07-19T10:07:06;34.90;47.80
27803;DHT22;15182;48.174;11.562;2022-07-19T10:09:37;35.10;47.90
27803;DHT22;15182;48.174;11.562;2022-07-19T10:12:09;35.20;47.60
27803;DHT22;15182;48.174;11.562;2022-07-19T10:14:43;35.30;47.40
27803;DHT22;15182;48.174;11.562;2022-07-19T10:17:23;35.40;47.00
27803;DHT22;15182;48.174;11.562;2022-07-19T10:19:58;35.50;46.60
27803;DHT22;15182;48.174;11.562;2022-07-19T10:22:31;35.60;46.80
27803;DHT22;15182;48.174;11.562;2022-07-19T10:25:13;35.70;46.80
27803;DHT22;15182;48.174;11.562;2022-07-19T10:27:48;35.90;46.60
27803;DHT22;15182;48.174;11.562;2022-07-19T10:30:24;36.00;46.50
27803;DHT22;15182;48.174;11.562;2022-07-19T10:32:57;36.10;46.00
27803;DHT22;15182;48.174;11.562;2022-07-19T10:35:30;36.20;46.10
27803;DHT22;15182;48.174;11.562;2022-07-19T10:38:10;36.30;46.00
27803;DHT22;15182;48.174;11.562;2022-07-19T10:40:45;36.30;45.50
27803;DHT22;15182;48.174;11.562;2022-07-19T10:43:19;36.40;45.60
27803;DHT22;15182;48.174;11.562;2022-07-19T10:46:10;36.50;45.80
27803;DHT22;15182;48.174;11.562;2022-07-19T10:48:45;36.60;45.60
27803;DHT22;15182;48.174;11.562;2022-07-19T10:51:29;36.70;45.60
27803;DHT22;15182;48.174;11.562;2022-07-19T10:54:02;36.80;45.30
27803;DHT22;15182;48.174;11.562;2022-07-19T10:56:35;36.90;45.10
27803;DHT22;15182;48.174;11.562;2022-07-19T10:59:09;37.00;45.00
27803;DHT22;15182;48.174;11.562;2022-07-19T11:01:54;37.10;44.80
27803;DHT22;15182;48.174;11.562;2022-07-19T11:04:29;37.20;44.70
27803;DHT22;15182;48.174;11.562;2022-07-19T11:07:17;37.30;44.60
27803;DHT22;15182;48.174;11.562;2022-07-19T11:09:50;37.40;44.40
27803;DHT22;15182;48.174;11.562;2022-07-19T11:12:26;37.50;44.50
27803;DHT22;15182;48.174;11.562;2022-07-19T11:15:01;37.60;44.40
27803;DHT22;15182;48.174;11.562;2022-07-19T11:17:34;37.70;43.90
27803;DHT22;15182;48.174;11.562;2022-07-19T11:20:08;37.80;43.70
27803;DHT22;15182;48.174;11.562;2022-07-19T11:22:46;37.90;43.80
27803;DHT22;15182;48.174;11.562;2022-07-19T11:25:25;38.00;44.00
27803;DHT22;15182;48.174;11.562;2022-07-19T11:27:58;38.10;43.50
27803;DHT22;15182;48.174;11.562;2022-07-19T11:30:31;38.20;43.70
27803;DHT22;15182;48.174;11.562;2022-07-19T11:33:07;38.20;43.50
27803;DHT22;15182;48.174;11.562;2022-07-19T11:35:38;38.30;44.30
27803;DHT22;15182;48.174;11.562;2022-07-19T11:38:09;38.40;43.60
27803;DHT22;15182;48.174;11.562;2022-07-19T11:40:42;38.40;43.50
27803;DHT22;15182;48.174;11.562;2022-07-19T11:43:15;38.50;43.50
27803;DHT22;15182;48.174;11.562;2022-07-19T11:45:48;38.60;43.70
27803;DHT22;15182;48.174;11.562;2022-07-19T11:48:29;38.60;43.40
27803;DHT22;15182;48.174;11.562;2022-07-19T11:51:03;38.70;43.40
27803;DHT22;15182;48.174;11.562;2022-07-19T11:53:38;38.80;43.40
27803;DHT22;15182;48.174;11.562;2022-07-19T11:56:18;38.80;43.50
27803;DHT22;15182;48.174;11.562;2022-07-19T11:58:52;38.90;43.10
27803;DHT22;15182;48.174;11.562;2022-07-19T12:01:26;38.90;43.30
27803;DHT22;15182;48.174;11.562;2022-07-19T12:04:02;39.00;43.20
27803;DHT22;15182;48.174;11.562;2022-07-19T12:06:35;39.10;43.10
27803;DHT22;15182;48.174;11.562;2022-07-19T12:09:09;39.10;43.10
27803;DHT22;15182;48.174;11.562;2022-07-19T12:11:43;39.10;43.00
27803;DHT22;15182;48.174;11.562;2022-07-19T12:14:17;39.20;42.90
27803;DHT22;15182;48.174;11.562;2022-07-19T12:19:40;39.10;43.00
27803;DHT22;15182;48.174;11.562;2022-07-19T12:22:34;39.20;42.60
27803;DHT22;15182;48.174;11.562;2022-07-19T12:25:08;39.20;42.90
27803;DHT22;15182;48.174;11.562;2022-07-19T12:27:40;39.30;42.50
27803;DHT22;15182;48.174;11.562;2022-07-19T12:30:20;39.20;42.60
27803;DHT22;15182;48.174;11.562;2022-07-19T12:32:53;39.20;42.00
27803;DHT22;15182;48.174;11.562;2022-07-19T12:35:26;39.30;42.00
27803;DHT22;15182;48.174;11.562;2022-07-19T12:38:08;39.30;42.40
27803;DHT22;15182;48.174;11.562;2022-07-19T12:40:42;39.30;42.40
27803;DHT22;15182;48.174;11.562;2022-07-19T12:43:14;39.30;42.30
27803;DHT22;15182;48.174;11.562;2022-07-19T12:45:46;39.20;42.10
27803;DHT22;15182;48.174;11.562;2022-07-19T12:48:18;39.30;42.00
27803;DHT22;15182;48.174;11.562;2022-07-19T12:50:51;39.30;41.70
27803;DHT22;15182;48.174;11.562;2022-07-19T12:53:23;39.30;41.60
27803;DHT22;15182;48.174;11.562;2022-07-19T12:56:04;39.30;41.80
